sensor_id;sensor_type;location;lat;lon;timestamp;pressure;altitude;pressure_sealevel;temperature;humidity
75006;BME280;63553;51.814;4.600;2023-02-11T00:01:38;103598.84;;;10.84;64.11
75006;BME280;63553;51.814;4.600;2023-02-11T00:04:06;103604.47;;;10.89;63.97
75006;BME280;63553;51.814;4.600;2023-02-11T00:06:33;103604.72;;;10.87;63.83
75006;BME280;63553;51.814;4.600;2023-02-11T00:08:59;103604.47;;;10.89;64.31
75006;BME280;63553;51.814;4.600;2023-02-11T00:11:26;103602.53;;;10.89;63.99
75006;BME280;63553;51.814;4.600;2023-02-11T00:13:58;103595.84;;;10.90;64.06
75006;BME280;63553;51.814;4.600;2023-02-11T00:16:24;103592.75;;;10.87;63.92
75006;BME280;63553;51.814;4.600;2023-02-11T00:18:49;103601.69;;;10.89;63.92
75006;BME280;63553;51.814;4.600;2023-02-11T00:21:22;103579.38;;;10.84;64.11
75006;BME280;63553;51.814;4.600;2023-02-11T00:23:48;103591.66;;;10.88;64.06
75006;BME280;63553;51.814;4.600;2023-02-11T00:26:22;103576.03;;;10.87;64.17
75006;BME280;63553;51.814;4.600;2023-02-11T00:28:49;103582.22;;;10.89;63.81
75006;BME280;63553;51.814;4.600;2023-02-11T00:31:17;103581.38;;;10.88;64.01
75006;BME280;63553;51.814;4.600;2023-02-11T00:33:43;103584.38;;;10.87;64.04
75006;BME280;63553;51.814;4.600;2023-02-11T00:36:13;103581.38;;;10.88;63.98
75006;BME280;63553;51.814;4.600;2023-02-11T00:38:41;103586.94;;;10.88;64.07
75006;BME280;63553;51.814;4.600;2023-02-11T00:41:07;103595.28;;;10.88;63.87
75006;BME280;63553;51.814;4.600;2023-02-11T00:43:32;103592.75;;;10.87;64.10
75006;BME280;63553;51.814;4.600;2023-02-11T00:45:58;103593.59;;;10.87;64.17
75006;BME280;63553;51.814;4.600;2023-02-11T00:48:23;103596.38;;;10.87;64.02
75006;BME280;63553;51.814;4.600;2023-02-11T00:50:49;103578.59;;;10.88;64.13
75006;BME280;63553;51.814;4.600;2023-02-11T00:53:14;103574.09;;;10.87;63.99
75006;BME280;63553;51.814;4.600;2023-02-11T00:55:39;103575.53;;;10.90;64.03
75006;BME280;63553;51.814;4.600;2023-02-11T00:58:05;103563.25;;;10.86;64.01
75006;BME280;63553;51.814;4.600;2023-02-11T01:00:30;103573.88;;;10.89;64.11
75006;BME280;63553;51.814;4.600;2023-02-11T01:02:55;103560.78;;;10.89;64.25
75006;BME280;63553;51.814;4.600;2023-02-11T01:05:21;103576.66;;;10.89;64.04
75006;BME280;63553;51.814;4.600;2023-02-11T01:07:47;103576.03;;;10.87;64.17
75006;BME280;63553;51.814;4.600;2023-02-11T01:10:12;103576.03;;;10.87;64.24
75006;BME280;63553;51.814;4.600;2023-02-11T01:12:38;103590.56;;;10.89;64.18
75006;BME280;63553;51.814;4.600;2023-02-11T01:15:05;103587.78;;;10.89;64.10
75006;BME280;63553;51.814;4.600;2023-02-11T01:17:31;103583.06;;;10.89;64.23
75006;BME280;63553;51.814;4.600;2023-02-11T01:19:57;103575.81;;;10.88;64.19
75006;BME280;63553;51.814;4.600;2023-02-11T01:22:22;103569.16;;;10.89;63.93
75006;BME280;63553;51.814;4.600;2023-02-11T01:24:47;103581.09;;;10.90;64.25
75006;BME280;63553;51.814;4.600;2023-02-11T01:27:13;103577.50;;;10.89;63.79
75006;BME280;63553;51.814;4.600;2023-02-11T01:29:38;103580.00;;;10.91;64.20
75006;BME280;63553;51.814;4.600;2023-02-11T01:32:04;103569.97;;;10.90;64.27
75006;BME280;63553;51.814;4.600;2023-02-11T01:34:29;103565.50;;;10.89;64.05
75006;BME280;63553;51.814;4.600;2023-02-11T01:36:58;103558.81;;;10.90;64.13
75006;BME280;63553;51.814;4.600;2023-02-11T01:39:25;103549.91;;;10.88;63.97
75006;BME280;63553;51.814;4.600;2023-02-11T01:41:51;103542.63;;;10.87;64.22
75006;BME280;63553;51.814;4.600;2023-02-11T01:46:49;103546.28;;;10.87;64.31
75006;BME280;63553;51.814;4.600;2023-02-11T01:49:27;103549.91;;;10.88;64.12
75006;BME280;63553;51.814;4.600;2023-02-11T01:51:59;103544.34;;;10.88;64.33
75006;BME280;63553;51.814;4.600;2023-02-11T01:54:29;103542.91;;;10.85;64.41
75006;BME280;63553;51.814;4.600;2023-02-11T01:57:17;103548.22;;;10.87;64.22
75006;BME280;63553;51.814;4.600;2023-02-11T02:00:12;103552.09;;;10.86;64.18
75006;BME280;63553;51.814;4.600;2023-02-11T02:02:57;103552.09;;;10.86;64.23
75006;BME280;63553;51.814;4.600;2023-02-11T02:10:41;103552.88;;;10.81;64.41
75006;BME280;63553;51.814;4.600;2023-02-11T02:13:08;103539.22;;;10.80;64.56
75006;BME280;63553;51.814;4.600;2023-02-11T02:15:35;103539.22;;;10.80;64.27
75006;BME280;63553;51.814;4.600;2023-02-11T02:18:18;103555.06;;;10.79;64.57
75006;BME280;63553;51.814;4.600;2023-02-11T02:23:41;103549.78;;;10.78;64.54
75006;BME280;63553;51.814;4.600;2023-02-11T02:37:04;103552.47;;;10.73;64.68
75006;BME280;63553;51.814;4.600;2023-02-11T02:39:34;103550.81;;;10.72;64.74
75006;BME280;63553;51.814;4.600;2023-02-11T02:42:00;103555.53;;;10.71;64.70
75006;BME280;63553;51.814;4.600;2023-02-11T02:44:27;103556.88;;;10.69;64.94
75006;BME280;63553;51.814;4.600;2023-02-11T02:46:53;103563.28;;;10.69;64.73
75006;BME280;63553;51.814;4.600;2023-02-11T02:49:18;103564.41;;;10.68;64.75
75006;BME280;63553;51.814;4.600;2023-02-11T03:03:12;103574.91;;;10.66;65.24
75006;BME280;63553;51.814;4.600;2023-02-11T03:06:28;103567.69;;;10.65;65.18
75006;BME280;63553;51.814;4.600;2023-02-11T03:11:52;103558.72;;;10.63;65.32
75006;BME280;63553;51.814;4.600;2023-02-11T03:14:18;103544.25;;;10.61;65.42
75006;BME280;63553;51.814;4.600;2023-02-11T03:16:46;103548.44;;;10.64;65.14
75006;BME280;63553;51.814;4.600;2023-02-11T03:19:35;103548.13;;;10.60;65.12
75006;BME280;63553;51.814;4.600;2023-02-11T03:22:04;103553.78;;;10.65;65.39
75006;BME280;63553;51.814;4.600;2023-02-11T03:24:34;103549.56;;;10.63;65.12
75006;BME280;63553;51.814;4.600;2023-02-11T03:27:08;103544.00;;;10.63;65.27
75006;BME280;63553;51.814;4.600;2023-02-11T03:34:51;103546.78;;;10.63;65.19
75006;BME280;63553;51.814;4.600;2023-02-11T03:37:26;103545.09;;;10.62;65.16
75006;BME280;63553;51.814;4.600;2023-02-11T03:40:05;103535.91;;;10.61;65.09
75006;BME280;63553;51.814;4.600;2023-02-11T03:42:35;103544.81;;;10.63;65.19
75006;BME280;63553;51.814;4.600;2023-02-11T03:45:05;103526.06;;;10.53;65.39
75006;BME280;63553;51.814;4.600;2023-02-11T03:47:34;103544.00;;;10.63;65.41
75006;BME280;63553;51.814;4.600;2023-02-11T03:50:05;103532.28;;;10.60;65.18
75006;BME280;63553;51.814;4.600;2023-02-11T03:52:33;103533.13;;;10.61;65.38
75006;BME280;63553;51.814;4.600;2023-02-11T03:55:02;103527.56;;;10.61;65.38
75006;BME280;63553;51.814;4.600;2023-02-11T03:57:30;103530.34;;;10.61;65.52
75006;BME280;63553;51.814;4.600;2023-02-11T03:59:58;103533.13;;;10.61;65.60
75006;BME280;63553;51.814;4.600;2023-02-11T04:02:28;103530.59;;;10.59;65.35
75006;BME280;63553;51.814;4.600;2023-02-11T04:04:54;103534.22;;;10.60;65.37
75006;BME280;63553;51.814;4.600;2023-02-11T04:07:20;103542.81;;;10.58;65.78
75006;BME280;63553;51.814;4.600;2023-02-11T04:09:45;103527.81;;;10.59;65.27
75006;BME280;63553;51.814;4.600;2023-02-11T04:12:10;103523.63;;;10.57;65.34
75006;BME280;63553;51.814;4.600;2023-02-11T04:14:36;103522.50;;;10.58;65.35
75006;BME280;63553;51.814;4.600;2023-02-11T04:17:02;103517.72;;;10.53;65.39
75006;BME280;63553;51.814;4.600;2023-02-11T04:19:28;103526.41;;;10.57;65.57
75006;BME280;63553;51.814;4.600;2023-02-11T04:21:53;103527.50;;;10.56;65.48
75006;BME280;63553;51.814;4.600;2023-02-11T04:24:18;103526.91;;;10.54;65.62
75006;BME280;63553;51.814;4.600;2023-02-11T04:26:44;103538.03;;;10.54;65.57
75006;BME280;63553;51.814;4.600;2023-02-11T04:29:09;103534.66;;;10.52;65.44
75006;BME280;63553;51.814;4.600;2023-02-11T04:31:34;103526.31;;;10.52;65.74
75006;BME280;63553;51.814;4.600;2023-02-11T04:33:59;103525.47;;;10.51;65.57
75006;BME280;63553;51.814;4.600;2023-02-11T04:36:25;103521.59;;;10.52;65.64
75006;BME280;63553;51.814;4.600;2023-02-11T04:38:50;103519.66;;;10.53;65.74
75006;BME280;63553;51.814;4.600;2023-02-11T04:41:15;103515.47;;;10.50;65.67
75006;BME280;63553;51.814;4.600;2023-02-11T04:43:41;103528.25;;;10.51;65.86
75006;BME280;63553;51.814;4.600;2023-02-11T04:46:06;103522.09;;;10.49;65.69
75006;BME280;63553;51.814;4.600;2023-02-11T04:48:31;103525.75;;;10.50;65.72
75006;BME280;63553;51.814;4.600;2023-02-11T04:50:58;103521.25;;;10.49;65.92
75006;BME280;63553;51.814;4.600;2023-02-11T04:53:24;103526.81;;;10.49;65.93
75006;BME280;63553;51.814;4.600;2023-02-11T04:55:49;103523.19;;;10.48;65.75
75006;BME280;63553;51.814;4.600;2023-02-11T04:58:16;103526.25;;;10.47;65.81
75006;BME280;63553;51.814;4.600;2023-02-11T05:00:41;103520.41;;;10.48;65.92
75006;BME280;63553;51.814;4.600;2023-02-11T05:03:06;103518.41;;;10.44;65.97
75006;BME280;63553;51.814;4.600;2023-02-11T05:05:32;103523.72;;;10.45;65.93
75006;BME280;63553;51.814;4.600;2023-02-11T05:07:57;103517.31;;;10.45;65.90
75006;BME280;63553;51.814;4.600;2023-02-11T05:10:23;103514.28;;;10.46;65.82
75006;BME280;63553;51.814;4.600;2023-02-11T05:12:48;103511.50;;;10.46;65.92
75006;BME280;63553;51.814;4.600;2023-02-11T05:15:14;103519.25;;;10.44;65.98
75006;BME280;63553;51.814;4.600;2023-02-11T05:17:39;103514.78;;;10.43;66.02
75006;BME280;63553;51.814;4.600;2023-02-11T05:20:05;103508.66;;;10.41;65.93
75006;BME280;63553;51.814;4.600;2023-02-11T05:22:31;103520.34;;;10.43;66.03
75006;BME280;63553;51.814;4.600;2023-02-11T05:24:56;103523.41;;;10.42;66.02
75006;BME280;63553;51.814;4.600;2023-02-11T05:27:21;103526.19;;;10.42;66.05
75006;BME280;63553;51.814;4.600;2023-02-11T05:29:47;103531.75;;;10.42;66.07
75006;BME280;63553;51.814;4.600;2023-02-11T05:32:12;103537.03;;;10.43;66.16
75006;BME280;63553;51.814;4.600;2023-02-11T05:34:37;103545.38;;;10.43;66.08
75006;BME280;63553;51.814;4.600;2023-02-11T05:37:03;103545.38;;;10.43;66.00
75006;BME280;63553;51.814;4.600;2023-02-11T05:39:28;103532.25;;;10.39;66.12
75006;BME280;63553;51.814;4.600;2023-02-11T05:41:53;103537.88;;;10.44;65.99
75006;BME280;63553;51.814;4.600;2023-02-11T05:44:19;103540.91;;;10.42;66.12
75006;BME280;63553;51.814;4.600;2023-02-11T05:46:44;103537.03;;;10.43;66.15
75006;BME280;63553;51.814;4.600;2023-02-11T05:49:09;103531.75;;;10.42;66.00
75006;BME280;63553;51.814;4.600;2023-02-11T05:51:35;103530.06;;;10.41;66.01
75006;BME280;63553;51.814;4.600;2023-02-11T05:54:00;103527.00;;;10.42;66.18
75006;BME280;63553;51.814;4.600;2023-02-11T05:56:25;103532.56;;;10.42;66.01
75006;BME280;63553;51.814;4.600;2023-02-11T05:58:51;103525.06;;;10.43;66.14
75006;BME280;63553;51.814;4.600;2023-02-11T06:01:16;103528.97;;;10.42;66.25
75006;BME280;63553;51.814;4.600;2023-02-11T06:03:41;103529.19;;;10.40;65.94
75006;BME280;63553;51.814;4.600;2023-02-11T06:06:11;103540.91;;;10.42;66.18
75006;BME280;63553;51.814;4.600;2023-02-11T06:08:37;103540.91;;;10.42;65.91
75006;BME280;63553;51.814;4.600;2023-02-11T06:11:02;103537.03;;;10.43;66.14
75006;BME280;63553;51.814;4.600;2023-02-11T06:13:28;103538.97;;;10.43;66.14
75006;BME280;63553;51.814;4.600;2023-02-11T06:16:00;103534.53;;;10.42;66.06
75006;BME280;63553;51.814;4.600;2023-02-11T06:18:26;103537.31;;;10.42;66.07
75006;BME280;63553;51.814;4.600;2023-02-11T06:20:51;103533.91;;;10.40;66.16
75006;BME280;63553;51.814;4.600;2023-02-11T06:23:17;103538.41;;;10.41;66.33
75006;BME280;63553;51.814;4.600;2023-02-11T06:25:42;103533.69;;;10.41;66.05
75006;BME280;63553;51.814;4.600;2023-02-11T06:28:07;103531.13;;;10.40;66.21
75006;BME280;63553;51.814;4.600;2023-02-11T06:30:36;103536.47;;;10.41;66.39
75006;BME280;63553;51.814;4.600;2023-02-11T06:33:01;103543.09;;;10.40;66.21
75006;BME280;63553;51.814;4.600;2023-02-11T06:35:27;103534.75;;;10.40;66.19
75006;BME280;63553;51.814;4.600;2023-02-11T06:37:52;103545.88;;;10.40;66.22
75006;BME280;63553;51.814;4.600;2023-02-11T06:40:18;103546.47;;;10.42;66.08
75006;BME280;63553;51.814;4.600;2023-02-11T06:42:44;103561.22;;;10.43;66.22
75006;BME280;63553;51.814;4.600;2023-02-11T06:45:09;103547.81;;;10.40;66.24
75006;BME280;63553;51.814;4.600;2023-02-11T06:47:37;103544.81;;;10.41;66.19
75006;BME280;63553;51.814;4.600;2023-02-11T06:50:02;103548.66;;;10.40;65.95
75006;BME280;63553;51.814;4.600;2023-02-11T06:52:28;103556.78;;;10.42;66.07
75006;BME280;63553;51.814;4.600;2023-02-11T06:54:53;103543.09;;;10.40;66.10
75006;BME280;63553;51.814;4.600;2023-02-11T06:57:19;103537.56;;;10.40;66.07
75006;BME280;63553;51.814;4.600;2023-02-11T06:59:44;103550.09;;;10.43;66.06
75006;BME280;63553;51.814;4.600;2023-02-11T07:02:09;103553.72;;;10.43;66.21
75006;BME280;63553;51.814;4.600;2023-02-11T07:04:35;103560.13;;;10.44;66.04
75006;BME280;63553;51.814;4.600;2023-02-11T07:07:00;103558.94;;;10.40;65.96
75006;BME280;63553;51.814;4.600;2023-02-11T07:09:25;103566.53;;;10.44;66.05
75006;BME280;63553;51.814;4.600;2023-02-11T07:11:51;103567.97;;;10.47;65.87
75006;BME280;63553;51.814;4.600;2023-02-11T07:14:16;103557.09;;;10.45;65.91
75006;BME280;63553;51.814;4.600;2023-02-11T07:16:41;103558.53;;;10.48;65.83
75006;BME280;63553;51.814;4.600;2023-02-11T07:19:07;103563.25;;;10.47;65.84
75006;BME280;63553;51.814;4.600;2023-02-11T07:21:32;103567.69;;;10.48;65.77
75006;BME280;63553;51.814;4.600;2023-02-11T07:23:57;103568.53;;;10.49;65.92
75006;BME280;63553;51.814;4.600;2023-02-11T07:26:23;103572.25;;;10.54;65.60
75006;BME280;63553;51.814;4.600;2023-02-11T07:28:50;103563.09;;;10.54;65.89
75006;BME280;63553;51.814;4.600;2023-02-11T07:31:24;103574.00;;;10.60;65.81
75006;BME280;63553;51.814;4.600;2023-02-11T07:33:52;103564.13;;;10.70;65.78
75006;BME280;63553;51.814;4.600;2023-02-11T07:36:17;103557.09;;;10.84;65.52
75006;BME280;63553;51.814;4.600;2023-02-11T07:38:43;103566.56;;;11.04;65.16
75006;BME280;63553;51.814;4.600;2023-02-11T07:41:11;103572.75;;;11.33;64.52
75006;BME280;63553;51.814;4.600;2023-02-11T07:43:38;103584.81;;;11.65;63.25
75006;BME280;63553;51.814;4.600;2023-02-11T07:46:05;103582.72;;;12.04;62.26
75006;BME280;63553;51.814;4.600;2023-02-11T07:48:31;103583.00;;;12.40;61.17
75006;BME280;63553;51.814;4.600;2023-02-11T07:53:31;103572.56;;;13.14;59.11
75006;BME280;63553;51.814;4.600;2023-02-11T07:55:56;103585.00;;;13.53;57.80
75006;BME280;63553;51.814;4.600;2023-02-11T07:58:21;103580.28;;;13.84;56.78
75006;BME280;63553;51.814;4.600;2023-02-11T08:00:47;103583.13;;;14.09;56.28
75006;BME280;63553;51.814;4.600;2023-02-11T08:03:12;103592.38;;;14.45;55.34
75006;BME280;63553;51.814;4.600;2023-02-11T08:05:37;103578.63;;;14.69;54.47
75006;BME280;63553;51.814;4.600;2023-02-11T08:08:03;103581.06;;;14.95;53.93
75006;BME280;63553;51.814;4.600;2023-02-11T08:10:28;103587.69;;;15.20;52.98
75006;BME280;63553;51.814;4.600;2023-02-11T08:12:54;103587.88;;;15.43;52.41
75006;BME280;63553;51.814;4.600;2023-02-11T08:15:19;103595.88;;;15.65;52.05
75006;BME280;63553;51.814;4.600;2023-02-11T08:17:44;103586.22;;;15.86;51.36
75006;BME280;63553;51.814;4.600;2023-02-11T08:20:10;103591.72;;;16.01;50.93
75006;BME280;63553;51.814;4.600;2023-02-11T08:22:36;103596.16;;;16.07;50.86
75006;BME280;63553;51.814;4.600;2023-02-11T08:25:01;103598.44;;;16.05;50.71
75006;BME280;63553;51.814;4.600;2023-02-11T08:27:27;103595.63;;;16.05;50.60
75006;BME280;63553;51.814;4.600;2023-02-11T08:29:53;103596.22;;;16.02;50.81
75006;BME280;63553;51.814;4.600;2023-02-11T08:32:19;103606.34;;;15.98;50.87
75006;BME280;63553;51.814;4.600;2023-02-11T08:34:45;103608.34;;;15.93;51.19
75006;BME280;63553;51.814;4.600;2023-02-11T08:37:10;103616.22;;;15.86;51.50
75006;BME280;63553;51.814;4.600;2023-02-11T08:39:35;103619.63;;;15.83;51.41
75006;BME280;63553;51.814;4.600;2023-02-11T08:42:01;103615.47;;;15.75;51.71
75006;BME280;63553;51.814;4.600;2023-02-11T08:44:26;103615.50;;;15.70;51.81
75006;BME280;63553;51.814;4.600;2023-02-11T08:46:52;103618.31;;;15.65;52.01
75006;BME280;63553;51.814;4.600;2023-02-11T08:49:18;103622.00;;;15.61;52.01
75006;BME280;63553;51.814;4.600;2023-02-11T08:51:44;103627.09;;;15.53;52.03
75006;BME280;63553;51.814;4.600;2023-02-11T08:54:10;103630.22;;;15.47;52.36
75006;BME280;63553;51.814;4.600;2023-02-11T08:56:37;103627.13;;;15.43;52.42
75006;BME280;63553;51.814;4.600;2023-02-11T08:59:02;103626.59;;;15.36;52.47
75006;BME280;63553;51.814;4.600;2023-02-11T09:01:29;103630.53;;;15.30;52.73
75006;BME280;63553;51.814;4.600;2023-02-11T09:03:55;103630.56;;;15.25;52.88
75006;BME280;63553;51.814;4.600;2023-02-11T09:06:22;103623.28;;;15.19;53.06
75006;BME280;63553;51.814;4.600;2023-02-11T09:08:50;103631.44;;;15.16;53.12
75006;BME280;63553;51.814;4.600;2023-02-11T09:11:17;103632.03;;;15.08;53.12
75006;BME280;63553;51.814;4.600;2023-02-11T09:13:44;103634.81;;;15.02;53.33
75006;BME280;63553;51.814;4.600;2023-02-11T09:16:19;103630.38;;;14.96;53.44
75006;BME280;63553;51.814;4.600;2023-02-11T09:18:45;103637.38;;;14.89;53.40
75006;BME280;63553;51.814;4.600;2023-02-11T09:21:12;103634.59;;;14.84;53.44
75006;BME280;63553;51.814;4.600;2023-02-11T09:23:38;103641.88;;;14.80;53.76
75006;BME280;63553;51.814;4.600;2023-02-11T09:26:11;103641.31;;;14.73;53.97
75006;BME280;63553;51.814;4.600;2023-02-11T09:28:37;103643.88;;;14.69;54.06
75006;BME280;63553;51.814;4.600;2023-02-11T09:31:07;103641.91;;;14.65;54.35
75006;BME280;63553;51.814;4.600;2023-02-11T09:33:33;103642.19;;;14.58;54.43
75006;BME280;63553;51.814;4.600;2023-02-11T09:36:03;103644.16;;;14.53;54.65
75006;BME280;63553;51.814;4.600;2023-02-11T09:38:28;103655.91;;;14.50;54.61
75006;BME280;63553;51.814;4.600;2023-02-11T09:40:54;103646.13;;;14.42;54.84
75006;BME280;63553;51.814;4.600;2023-02-11T09:43:22;103648.09;;;14.41;55.02
75006;BME280;63553;51.814;4.600;2023-02-11T09:45:49;103656.19;;;14.38;54.97
75006;BME280;63553;51.814;4.600;2023-02-11T09:48:19;103647.50;;;14.34;55.09
75006;BME280;63553;51.814;4.600;2023-02-11T09:50:51;103646.09;;;14.32;55.28
75006;BME280;63553;51.814;4.600;2023-02-11T09:53:31;103655.34;;;14.27;55.09
75006;BME280;63553;51.814;4.600;2023-02-11T09:56:02;103646.09;;;14.27;55.40
75006;BME280;63553;51.814;4.600;2023-02-11T09:58:37;103648.59;;;14.23;55.64
75006;BME280;63553;51.814;4.600;2023-02-11T10:06:54;103661.16;;;14.11;55.41
75006;BME280;63553;51.814;4.600;2023-02-11T10:14:57;103668.16;;;14.08;55.90
75006;BME280;63553;51.814;4.600;2023-02-11T10:20:24;103680.22;;;14.04;56.21
75006;BME280;63553;51.814;4.600;2023-02-11T10:23:00;103675.72;;;13.98;56.25
75006;BME280;63553;51.814;4.600;2023-02-11T10:25:36;103686.63;;;13.99;56.40
75006;BME280;63553;51.814;4.600;2023-02-11T10:28:12;103689.13;;;13.96;56.43
75006;BME280;63553;51.814;4.600;2023-02-11T10:35:39;103681.84;;;13.89;56.65
75006;BME280;63553;51.814;4.600;2023-02-11T10:38:08;103680.16;;;13.88;56.94
75006;BME280;63553;51.814;4.600;2023-02-11T10:40:34;103690.25;;;13.89;56.74
75006;BME280;63553;51.814;4.600;2023-02-11T10:43:03;103691.06;;;13.90;56.91
75006;BME280;63553;51.814;4.600;2023-02-11T10:45:38;103685.19;;;13.86;56.57
75006;BME280;63553;51.814;4.600;2023-02-11T10:48:05;103696.94;;;13.88;56.83
75006;BME280;63553;51.814;4.600;2023-02-11T10:51:07;103695.53;;;13.86;56.77
75006;BME280;63553;51.814;4.600;2023-02-11T10:53:33;103706.44;;;13.82;56.86
75006;BME280;63553;51.814;4.600;2023-02-11T10:56:00;103707.81;;;13.80;56.84
75006;BME280;63553;51.814;4.600;2023-02-11T10:58:43;103719.56;;;13.77;57.09
75006;BME280;63553;51.814;4.600;2023-02-11T11:01:09;103717.56;;;13.72;57.19
75006;BME280;63553;51.814;4.600;2023-02-11T11:03:45;103728.75;;;13.72;57.03
75006;BME280;63553;51.814;4.600;2023-02-11T11:06:11;103721.19;;;13.68;57.08
75006;BME280;63553;51.814;4.600;2023-02-11T11:08:38;103730.44;;;13.68;57.29
75006;BME280;63553;51.814;4.600;2023-02-11T11:11:07;103730.69;;;13.67;57.24
75006;BME280;63553;51.814;4.600;2023-02-11T11:18:42;103719.50;;;13.62;57.44
75006;BME280;63553;51.814;4.600;2023-02-11T11:23:48;103716.69;;;13.62;57.39
75006;BME280;63553;51.814;4.600;2023-02-11T11:26:15;103724.25;;;13.61;57.51
75006;BME280;63553;51.814;4.600;2023-02-11T11:28:42;103727.03;;;13.61;57.64
75006;BME280;63553;51.814;4.600;2023-02-11T11:31:23;103724.25;;;13.61;57.76
75006;BME280;63553;51.814;4.600;2023-02-11T11:33:52;103715.56;;;13.58;57.73
75006;BME280;63553;51.814;4.600;2023-02-11T11:36:20;103723.69;;;13.59;57.55
75006;BME280;63553;51.814;4.600;2023-02-11T11:38:57;103721.44;;;13.56;57.63
75006;BME280;63553;51.814;4.600;2023-02-11T11:41:28;103724.22;;;13.56;57.53
75006;BME280;63553;51.814;4.600;2023-02-11T11:46:29;103728.13;;;13.55;57.67
75006;BME280;63553;51.814;4.600;2023-02-11T11:49:12;103729.53;;;13.53;57.77
75006;BME280;63553;51.814;4.600;2023-02-11T11:51:41;103725.88;;;13.52;57.63
75006;BME280;63553;51.814;4.600;2023-02-11T11:54:14;103721.38;;;13.51;57.56
75006;BME280;63553;51.814;4.600;2023-02-11T11:56:53;103716.94;;;13.50;57.45
75006;BME280;63553;51.814;4.600;2023-02-11T11:59:20;103719.44;;;13.52;57.50
75006;BME280;63553;51.814;4.600;2023-02-11T12:07:31;103732.00;;;13.49;57.81
75006;BME280;63553;51.814;4.600;2023-02-11T12:12:42;103742.88;;;13.46;57.98
75006;BME280;63553;51.814;4.600;2023-02-11T12:15:28;103738.97;;;13.42;57.89
75006;BME280;63553;51.814;4.600;2023-02-11T12:26:33;103741.44;;;13.33;58.27
75006;BME280;63553;51.814;4.600;2023-02-11T12:29:25;103738.91;;;13.31;58.30
75006;BME280;63553;51.814;4.600;2023-02-11T12:34:25;103733.84;;;13.28;58.33
75006;BME280;63553;51.814;4.600;2023-02-11T12:42:50;103731.63;;;13.30;58.47
75006;BME280;63553;51.814;4.600;2023-02-11T12:48:29;103734.41;;;13.30;58.43
75006;BME280;63553;51.814;4.600;2023-02-11T12:56:23;103738.34;;;13.29;58.32
75006;BME280;63553;51.814;4.600;2023-02-11T12:58:54;103729.94;;;13.29;58.14
75006;BME280;63553;51.814;4.600;2023-02-11T13:01:28;103714.03;;;13.30;58.24
75006;BME280;63553;51.814;4.600;2023-02-11T13:04:03;103717.66;;;13.30;58.27
75006;BME280;63553;51.814;4.600;2023-02-11T13:06:44;103715.16;;;13.34;58.33
75006;BME280;63553;51.814;4.600;2023-02-11T13:09:15;103706.78;;;13.34;58.22
75006;BME280;63553;51.814;4.600;2023-02-11T13:11:46;103712.09;;;13.35;58.23
75006;BME280;63553;51.814;4.600;2023-02-11T13:14:29;103700.06;;;13.30;58.18
75006;BME280;63553;51.814;4.600;2023-02-11T13:17:00;103707.38;;;13.36;57.83
75006;BME280;63553;51.814;4.600;2023-02-11T13:19:37;103705.97;;;13.39;58.08
75006;BME280;63553;51.814;4.600;2023-02-11T13:22:21;103702.34;;;13.38;58.10
75006;BME280;63553;51.814;4.600;2023-02-11T13:24:58;103705.13;;;13.38;57.92
75006;BME280;63553;51.814;4.600;2023-02-11T13:30:34;103705.97;;;13.39;57.87
75006;BME280;63553;51.814;4.600;2023-02-11T13:33:16;103704.28;;;13.43;58.00
75006;BME280;63553;51.814;4.600;2023-02-11T13:36:15;103693.97;;;13.43;57.82
75006;BME280;63553;51.814;4.600;2023-02-11T13:38:57;103698.44;;;13.44;57.75
75006;BME280;63553;51.814;4.600;2023-02-11T13:41:36;103697.31;;;13.45;57.53
75006;BME280;63553;51.814;4.600;2023-02-11T13:44:25;103689.53;;;13.47;57.54
75006;BME280;63553;51.814;4.600;2023-02-11T13:49:31;103685.59;;;13.48;57.56
75006;BME280;63553;51.814;4.600;2023-02-11T13:51:59;103686.19;;;13.50;57.59
75006;BME280;63553;51.814;4.600;2023-02-11T13:54:34;103688.38;;;13.48;57.79
75006;BME280;63553;51.814;4.600;2023-02-11T13:59:48;103695.66;;;13.49;57.92
75006;BME280;63553;51.814;4.600;2023-02-11T14:02:26;103695.38;;;13.46;58.01
75006;BME280;63553;51.814;4.600;2023-02-11T14:10:57;103700.13;;;13.45;58.00
75006;BME280;63553;51.814;4.600;2023-02-11T14:13:29;103701.50;;;13.43;57.97
75006;BME280;63553;51.814;4.600;2023-02-11T14:21:23;103708.22;;;13.42;58.24
75006;BME280;63553;51.814;4.600;2023-02-11T14:24:39;103702.63;;;13.42;58.02
75006;BME280;63553;51.814;4.600;2023-02-11T14:26:50;103694.50;;;13.40;58.28
75006;BME280;63553;51.814;4.600;2023-02-11T14:34:55;103700.09;;;13.35;58.59
75006;BME280;63553;51.814;4.600;2023-02-11T14:42:45;103707.31;;;13.31;58.53
75006;BME280;63553;51.814;4.600;2023-02-11T14:45:18;103705.66;;;13.30;58.39
75006;BME280;63553;51.814;4.600;2023-02-11T14:47:48;103714.03;;;13.30;58.81
75006;BME280;63553;51.814;4.600;2023-02-11T14:50:21;103706.72;;;13.24;58.71
75006;BME280;63553;51.814;4.600;2023-02-11T14:52:48;103716.78;;;13.25;58.71
75006;BME280;63553;51.814;4.600;2023-02-11T14:55:28;103710.09;;;13.26;58.81
75006;BME280;63553;51.814;4.600;2023-02-11T14:58:17;103715.94;;;13.24;59.10
75006;BME280;63553;51.814;4.600;2023-02-11T15:08:52;103717.59;;;13.15;59.22
75006;BME280;63553;51.814;4.600;2023-02-11T15:11:20;103717.59;;;13.15;59.39
75006;BME280;63553;51.814;4.600;2023-02-11T15:13:47;103721.16;;;13.11;59.41
75006;BME280;63553;51.814;4.600;2023-02-11T15:16:16;103726.75;;;13.11;59.54
75006;BME280;63553;51.814;4.600;2023-02-11T15:18:53;103729.84;;;13.09;59.60
75006;BME280;63553;51.814;4.600;2023-02-11T15:21:24;103728.13;;;13.08;59.42
75006;BME280;63553;51.814;4.600;2023-02-11T15:23:56;103727.28;;;13.08;59.40
75006;BME280;63553;51.814;4.600;2023-02-11T15:26:23;103725.00;;;13.05;59.61